createdAt,value
2022-10-23T00:00:51.021Z,0.00
2022-10-23T00:01:50.973Z,0.00
2022-10-23T00:02:51.076Z,0.00
2022-10-23T00:03:50.959Z,0.00
2022-10-23T00:04:50.943Z,0.00
2022-10-23T00:05:50.933Z,0.00
2022-10-23T00:06:50.927Z,0.00
2022-10-23T00:07:50.914Z,0.00
2022-10-23T00:08:50.920Z,0.00
2022-10-23T00:09:50.893Z,0.00
2022-10-23T00:10:50.880Z,0.00
2022-10-23T00:11:50.870Z,0.00
2022-10-23T00:12:50.860Z,0.00
2022-10-23T00:13:50.841Z,0.00
2022-10-23T00:14:50.857Z,0.00
2022-10-23T00:16:50.827Z,0.00
2022-10-23T00:17:50.796Z,0.00
2022-10-23T00:18:50.805Z,0.00
2022-10-23T00:19:50.782Z,0.00
2022-10-23T00:20:50.768Z,0.00
2022-10-23T00:21:50.770Z,0.00
2022-10-23T00:22:50.766Z,0.00
2022-10-23T00:23:50.740Z,0.00
2022-10-23T00:24:50.734Z,0.00
2022-10-23T00:25:50.738Z,0.00
2022-10-23T00:26:50.708Z,0.00
2022-10-23T00:27:50.701Z,0.00
2022-10-23T00:28:50.681Z,0.00
2022-10-23T00:29:50.713Z,0.00
2022-10-23T00:30:50.663Z,0.00
2022-10-23T00:31:50.667Z,0.00
2022-10-23T00:32:50.632Z,0.00
2022-10-23T00:33:50.634Z,0.00
2022-10-23T00:34:50.619Z,0.00
2022-10-23T00:35:50.610Z,0.00
2022-10-23T00:36:50.613Z,0.00
2022-10-23T00:37:50.586Z,0.00
2022-10-23T00:38:50.577Z,0.00
2022-10-23T00:39:50.558Z,0.00
2022-10-23T00:41:50.539Z,0.00
2022-10-23T00:42:50.542Z,0.00
2022-10-23T00:43:50.517Z,0.00
2022-10-23T00:44:50.511Z,0.00
2022-10-23T00:45:50.489Z,0.00
2022-10-23T00:46:50.505Z,0.00
2022-10-23T00:47:50.474Z,0.00
2022-10-23T00:48:50.464Z,0.00
2022-10-23T00:49:50.458Z,0.00
2022-10-23T00:50:50.444Z,0.00
2022-10-23T00:51:50.427Z,0.00
2022-10-23T00:52:50.439Z,0.00
2022-10-23T00:54:01.038Z,0.00
2022-10-23T00:54:50.414Z,0.00
2022-10-23T00:55:50.390Z,0.00
2022-10-23T00:56:50.374Z,0.00
2022-10-23T00:57:50.389Z,0.00
2022-10-23T00:58:50.357Z,0.00
2022-10-23T00:59:50.338Z,0.00
2022-10-23T01:00:50.334Z,0.00
2022-10-23T01:01:50.457Z,0.00
2022-10-23T01:02:50.318Z,0.00
2022-10-23T01:03:50.326Z,0.00
2022-10-23T01:04:50.290Z,0.00
2022-10-23T01:05:50.311Z,0.00
2022-10-23T01:06:50.269Z,0.00
2022-10-23T01:07:50.258Z,0.00
2022-10-23T01:08:50.270Z,0.00
2022-10-23T01:09:50.235Z,0.00
2022-10-23T05:01:13.382Z,0.00
2022-10-23T05:02:14.270Z,0.00
2022-10-23T05:03:14.242Z,0.00
2022-10-23T05:04:14.231Z,0.00
2022-10-23T05:05:14.219Z,0.00
2022-10-23T05:06:14.226Z,0.00
2022-10-23T05:07:14.263Z,0.00
2022-10-23T05:08:17.147Z,0.00
2022-10-23T05:09:14.191Z,0.00
2022-10-23T05:10:14.171Z,0.00
2022-10-23T05:11:14.147Z,0.00
2022-10-23T05:12:14.165Z,0.00
2022-10-23T05:13:14.166Z,0.00
2022-10-23T05:14:15.581Z,0.00
2022-10-23T05:15:14.111Z,0.00
2022-10-23T05:16:14.117Z,0.00
2022-10-23T05:17:14.088Z,0.00
2022-10-23T05:18:14.099Z,0.00
2022-10-23T05:19:14.091Z,0.00
2022-10-23T05:20:14.070Z,0.00
2022-10-23T05:21:14.047Z,0.00
2022-10-23T05:22:14.041Z,0.00
2022-10-23T05:23:14.028Z,0.00
2022-10-23T05:24:14.012Z,0.00
2022-10-23T05:25:14.027Z,0.00
2022-10-23T05:26:13.992Z,0.00
2022-10-23T05:27:13.981Z,0.00
2022-10-23T05:28:13.970Z,0.00
2022-10-23T05:29:13.960Z,0.00
2022-10-23T05:30:13.972Z,0.00
2022-10-23T05:31:13.937Z,0.00
2022-10-23T05:32:13.972Z,0.00
2022-10-23T05:33:13.924Z,0.00
2022-10-23T05:34:13.907Z,0.00
2022-10-23T05:35:13.903Z,0.00
2022-10-23T05:36:13.848Z,1.00
2022-10-23T05:37:13.878Z,0.00
2022-10-23T05:38:13.833Z,1.00
2022-10-23T05:39:13.803Z,1.00
2022-10-23T05:40:13.794Z,1.00
2022-10-23T05:41:13.797Z,2.00
2022-10-23T05:42:13.769Z,2.00
2022-10-23T05:43:13.762Z,2.00
2022-10-23T05:44:13.766Z,1.00
2022-10-23T05:45:13.736Z,2.00
2022-10-23T05:46:13.740Z,3.00
2022-10-23T05:47:13.715Z,5.00
2022-10-23T05:48:22.813Z,2.00
2022-10-23T05:49:13.703Z,2.00
2022-10-23T05:50:13.677Z,6.00
2022-10-23T05:51:13.673Z,6.00
2022-10-23T05:52:13.684Z,9.00
2022-10-23T05:53:13.673Z,14.00
2022-10-23T05:54:13.638Z,14.00
2022-10-23T05:55:13.634Z,13.00
2022-10-23T05:56:13.617Z,18.00
2022-10-23T05:57:13.708Z,21.00
2022-10-23T05:58:13.593Z,21.00
2022-10-23T05:59:13.595Z,23.00
2022-10-23T06:00:13.593Z,29.00
2022-10-23T06:01:13.636Z,34.00
2022-10-23T06:02:13.641Z,37.00
2022-10-23T06:03:13.573Z,40.00
2022-10-23T06:04:13.529Z,42.00
2022-10-23T06:05:13.534Z,44.00
2022-10-23T06:06:13.510Z,47.00
2022-10-23T06:07:13.505Z,49.00
2022-10-23T06:08:13.501Z,51.00
2022-10-23T06:09:13.507Z,52.00
2022-10-23T06:10:13.474Z,56.00
2022-10-23T06:11:13.461Z,60.00
2022-10-23T06:12:13.449Z,60.00
2022-10-23T06:13:13.440Z,65.00
2022-10-23T06:14:13.443Z,66.00
2022-10-23T06:15:13.432Z,70.00
2022-10-23T06:16:13.403Z,73.00
2022-10-23T06:17:13.401Z,76.00
2022-10-23T06:18:13.393Z,80.00
2022-10-23T06:19:13.379Z,83.00
2022-10-23T06:20:13.384Z,87.00
2022-10-23T06:21:13.356Z,89.00
2022-10-23T06:22:13.382Z,91.00
2022-10-23T06:23:13.333Z,93.00
2022-10-23T06:24:13.332Z,97.00
2022-10-23T06:25:13.317Z,103.00
2022-10-23T06:26:13.325Z,106.00
2022-10-23T06:27:13.293Z,112.00
2022-10-23T06:28:15.900Z,116.00
2022-10-23T06:29:13.277Z,123.00
2022-10-23T06:30:13.259Z,124.00
2022-10-23T06:31:13.275Z,131.00
2022-10-23T06:32:13.253Z,136.00
2022-10-23T06:33:13.235Z,144.00
2022-10-23T06:34:13.209Z,153.00
2022-10-23T06:35:13.246Z,166.00
2022-10-23T06:36:13.190Z,174.00
2022-10-23T06:37:13.179Z,185.00
2022-10-23T06:38:13.178Z,195.00
2022-10-23T06:39:13.172Z,207.00
2022-10-23T06:40:13.146Z,220.00
2022-10-23T06:41:13.159Z,228.00
2022-10-23T06:42:13.129Z,235.00
2022-10-23T06:43:13.120Z,240.00
2022-10-23T06:44:13.107Z,246.00
2022-10-23T06:45:13.098Z,258.00
2022-10-23T06:46:13.084Z,263.00
2022-10-23T06:47:13.159Z,275.00
2022-10-23T06:48:13.072Z,280.00
2022-10-23T06:49:13.053Z,284.00
2022-10-23T06:50:15.402Z,289.00
2022-10-23T06:51:13.033Z,292.00
2022-10-23T06:52:23.160Z,294.00
2022-10-23T06:53:13.032Z,292.00
2022-10-23T06:54:13.013Z,291.00
2022-10-23T06:55:12.994Z,298.00
2022-10-23T06:56:12.981Z,309.00
2022-10-23T06:57:12.987Z,322.00
2022-10-23T06:58:12.957Z,338.00
2022-10-23T06:59:12.953Z,350.00
2022-10-23T07:00:12.940Z,365.00
2022-10-23T07:01:13.169Z,379.00
2022-10-23T07:02:12.916Z,386.00
2022-10-23T07:03:12.935Z,393.00
2022-10-23T07:04:12.898Z,392.00
2022-10-23T07:05:13.862Z,389.00
2022-10-23T07:06:12.874Z,384.00
2022-10-23T07:07:12.862Z,375.00
2022-10-23T07:08:12.851Z,372.00
2022-10-23T07:09:12.842Z,364.00
2022-10-23T07:11:12.843Z,352.00
2022-10-23T07:12:12.815Z,345.00
2022-10-23T07:13:12.799Z,342.00
2022-10-23T07:14:12.790Z,337.00
2022-10-23T07:15:12.779Z,336.00
2022-10-23T07:16:12.808Z,338.00
2022-10-23T07:17:12.770Z,342.00
2022-10-23T07:18:12.743Z,348.00
2022-10-23T07:19:12.759Z,360.00
2022-10-23T07:20:12.724Z,367.00
2022-10-23T07:21:12.723Z,372.00
2022-10-23T07:22:15.721Z,381.00
2022-10-23T07:23:12.691Z,389.00
2022-10-23T07:24:12.683Z,394.00
2022-10-23T07:25:12.697Z,394.00
2022-10-23T07:26:12.700Z,394.00
2022-10-23T07:27:12.655Z,389.00
2022-10-23T07:28:12.640Z,393.00
2022-10-23T07:29:12.628Z,386.00
2022-10-23T07:30:12.617Z,375.00
2022-10-23T07:31:12.629Z,378.00
2022-10-23T07:32:12.645Z,383.00
2022-10-23T07:33:12.588Z,391.00
2022-10-23T07:34:12.572Z,401.00
2022-10-23T07:35:12.563Z,414.00
2022-10-23T07:36:12.554Z,431.00
2022-10-23T07:37:12.543Z,443.00
2022-10-23T07:38:12.556Z,458.00
2022-10-23T07:39:12.532Z,471.00
2022-10-23T07:40:12.509Z,470.00
2022-10-23T07:41:12.610Z,468.00
2022-10-23T07:42:12.486Z,470.00
2022-10-23T07:43:12.487Z,478.00
2022-10-23T07:44:12.494Z,490.00
2022-10-23T07:45:12.477Z,500.00
2022-10-23T07:46:12.462Z,512.00
2022-10-23T07:47:12.447Z,510.00
2022-10-23T07:48:12.433Z,510.00
2022-10-23T07:49:12.421Z,515.00
2022-10-23T07:50:12.415Z,517.00
2022-10-23T07:51:12.425Z,510.00
2022-10-23T07:52:12.384Z,509.00
2022-10-23T07:53:12.378Z,511.00
2022-10-23T07:54:12.372Z,518.00
2022-10-23T07:55:12.354Z,528.00
2022-10-23T07:56:12.333Z,539.00
2022-10-23T07:57:12.352Z,549.00
2022-10-23T07:58:12.322Z,564.00
2022-10-23T07:59:12.314Z,587.00
2022-10-23T08:00:12.322Z,612.00
2022-10-23T08:01:12.316Z,636.00
2022-10-23T08:02:12.340Z,649.00
2022-10-23T08:03:12.272Z,646.00
2022-10-23T08:04:12.259Z,645.00
2022-10-23T08:05:12.279Z,650.00
2022-10-23T08:06:12.241Z,664.00
2022-10-23T08:07:12.229Z,676.00
2022-10-23T08:08:12.248Z,685.00
2022-10-23T08:09:12.207Z,695.00
2022-10-23T08:10:12.190Z,707.00
2022-10-23T08:11:12.187Z,724.00
2022-10-23T08:12:12.170Z,731.00
2022-10-23T08:13:12.168Z,741.00
2022-10-23T08:14:12.163Z,750.00
2022-10-23T08:15:12.137Z,762.00
2022-10-23T08:16:12.135Z,770.00
2022-10-23T08:17:12.117Z,775.00
2022-10-23T08:18:12.105Z,785.00
2022-10-23T08:19:12.120Z,786.00
2022-10-23T08:20:12.079Z,788.00
2022-10-23T08:21:12.099Z,801.00
2022-10-23T08:22:12.068Z,796.00
2022-10-23T08:23:12.054Z,825.00
2022-10-23T08:24:12.051Z,848.00
2022-10-23T08:25:12.146Z,859.00
2022-10-23T08:26:12.015Z,876.00
2022-10-23T08:27:12.006Z,895.00
2022-10-23T08:28:11.993Z,901.00
2022-10-23T08:29:11.989Z,885.00
2022-10-23T08:30:11.991Z,883.00
2022-10-23T08:31:12.006Z,897.00
2022-10-23T08:32:11.953Z,953.00
2022-10-23T08:33:11.957Z,925.00
2022-10-23T08:34:11.958Z,901.00
2022-10-23T08:35:11.928Z,1093.00
2022-10-23T08:36:11.929Z,1177.00
2022-10-23T08:37:11.909Z,1159.00
2022-10-23T08:38:11.910Z,1091.00
2022-10-23T08:39:11.881Z,1124.00
2022-10-23T08:40:11.869Z,1077.00
2022-10-23T08:41:11.871Z,1049.00
2022-10-23T08:42:11.851Z,1099.00
2022-10-23T08:43:11.838Z,1076.00
2022-10-23T08:44:11.852Z,1063.00
2022-10-23T08:45:11.821Z,1085.00
2022-10-23T08:46:11.800Z,1128.00
2022-10-23T08:47:11.802Z,1165.00
2022-10-23T08:48:11.781Z,1174.00
2022-10-23T08:49:11.779Z,1170.00
2022-10-23T08:50:11.797Z,1166.00
2022-10-23T08:51:11.751Z,1152.00
2022-10-23T08:52:14.006Z,1110.00
2022-10-23T08:53:11.733Z,1115.00
2022-10-23T08:54:11.721Z,1123.00
2022-10-23T08:55:11.720Z,1114.00
2022-10-23T08:56:11.708Z,1132.00
2022-10-23T08:57:11.691Z,1106.00
2022-10-23T08:58:11.679Z,1126.00
2022-10-23T08:59:11.669Z,1143.00
2022-10-23T09:00:11.654Z,1178.00
2022-10-23T09:01:11.837Z,1197.00
2022-10-23T09:02:11.755Z,1241.00
2022-10-23T09:03:11.625Z,1259.00
2022-10-23T09:04:11.612Z,1254.00
2022-10-23T09:05:11.603Z,1309.00
2022-10-23T09:06:11.586Z,1364.00
2022-10-23T09:07:11.596Z,1403.00
2022-10-23T09:08:11.575Z,1419.00
2022-10-23T09:09:11.558Z,1490.00
2022-10-23T09:10:11.551Z,1558.00
2022-10-23T09:11:11.545Z,1590.00
2022-10-23T09:12:11.527Z,1597.00
2022-10-23T09:13:11.550Z,1525.00
2022-10-23T09:14:11.501Z,1556.00
2022-10-23T09:15:11.496Z,1572.00
2022-10-23T09:16:11.483Z,1602.00
2022-10-23T09:17:11.513Z,1584.00
2022-10-23T09:18:11.506Z,1475.00
2022-10-23T09:19:12.187Z,1421.00
2022-10-23T09:20:11.444Z,1430.00
2022-10-23T09:21:11.431Z,1449.00
2022-10-23T09:22:11.421Z,1551.00
2022-10-23T09:23:11.408Z,1569.00
2022-10-23T09:24:11.411Z,1593.00
2022-10-23T09:25:11.407Z,1482.00
2022-10-23T09:26:11.381Z,1584.00
2022-10-23T09:27:11.366Z,1595.00
2022-10-23T09:28:11.375Z,1527.00
2022-10-23T09:29:11.367Z,1585.00
2022-10-23T09:30:11.347Z,1547.00
2022-10-23T09:31:11.324Z,1441.00
2022-10-23T09:32:11.347Z,1457.00
2022-10-23T09:33:11.309Z,1468.00
2022-10-23T09:34:11.854Z,1474.00
2022-10-23T09:35:11.286Z,1533.00
2022-10-23T09:36:11.283Z,1471.00
2022-10-23T09:37:11.269Z,1398.00
2022-10-23T09:38:11.240Z,1388.00
2022-10-23T09:39:11.255Z,1479.00
2022-10-23T09:40:11.241Z,1550.00
2022-10-23T09:41:11.235Z,1595.00
2022-10-23T09:42:11.220Z,1557.00
2022-10-23T09:43:11.196Z,1692.00
2022-10-23T09:44:11.179Z,1829.00
2022-10-23T09:45:11.186Z,1751.00
2022-10-23T09:46:11.165Z,1725.00
2022-10-23T09:47:11.218Z,1741.00
2022-10-23T09:48:11.137Z,1713.00
2022-10-23T09:49:11.138Z,1747.00
2022-10-23T09:50:11.131Z,1721.00
2022-10-23T09:51:11.115Z,1817.00
2022-10-23T09:52:11.140Z,1827.00
2022-10-23T09:53:11.089Z,1826.00
2022-10-23T09:54:11.081Z,2032.00
2022-10-23T09:55:11.061Z,2243.00
2022-10-23T09:56:11.055Z,2391.00
2022-10-23T09:57:11.050Z,2372.00
2022-10-23T09:58:11.056Z,2222.00
2022-10-23T09:59:11.023Z,2334.00
2022-10-23T10:00:11.018Z,1953.00
2022-10-23T10:01:11.206Z,1686.00
2022-10-23T10:02:11.138Z,1626.00
2022-10-23T10:03:10.981Z,1946.00
2022-10-23T10:04:10.984Z,2057.00
2022-10-23T10:05:11.001Z,2189.00
2022-10-23T10:06:10.949Z,2031.00
2022-10-23T10:07:10.939Z,2017.00
2022-10-23T10:08:10.930Z,2106.00
2022-10-23T10:09:10.920Z,2083.00
2022-10-23T10:10:10.909Z,2104.00
2022-10-23T10:11:10.904Z,2204.00
2022-10-23T10:12:10.885Z,2387.00
2022-10-23T10:13:14.276Z,2502.00
2022-10-23T10:14:10.862Z,2528.00
2022-10-23T10:15:10.865Z,2586.00
2022-10-23T10:16:10.842Z,2552.00
2022-10-23T10:17:10.828Z,2398.00
2022-10-23T10:18:10.844Z,2182.00
2022-10-23T10:19:10.811Z,1958.00
2022-10-23T10:20:10.817Z,1867.00
2022-10-23T10:21:10.791Z,1638.00
2022-10-23T10:22:10.825Z,1645.00
2022-10-23T10:23:10.768Z,1795.00
2022-10-23T10:24:10.765Z,2006.00
2022-10-23T10:25:10.777Z,2157.00
2022-10-23T10:26:10.742Z,2111.00
2022-10-23T10:27:10.725Z,1990.00
2022-10-23T10:28:10.728Z,2084.00
2022-10-23T10:29:10.735Z,1947.00
2022-10-23T10:30:10.697Z,1674.00
2022-10-23T10:31:10.675Z,1559.00
2022-10-23T10:32:10.676Z,1526.00
2022-10-23T10:33:10.677Z,1506.00
2022-10-23T10:34:10.662Z,1470.00
2022-10-23T10:35:10.640Z,1459.00
2022-10-23T10:36:10.632Z,1522.00
2022-10-23T10:37:10.623Z,1729.00
2022-10-23T10:38:10.609Z,2020.00
2022-10-23T10:39:10.611Z,2003.00
2022-10-23T10:40:10.587Z,1789.00
2022-10-23T10:41:10.616Z,1708.00
2022-10-23T10:42:10.569Z,1732.00
2022-10-23T10:43:10.557Z,1794.00
2022-10-23T10:44:10.544Z,2051.00
2022-10-23T10:45:10.529Z,2112.00
2022-10-23T10:46:10.557Z,1993.00
2022-10-23T10:47:10.527Z,1850.00
2022-10-23T10:48:10.522Z,2015.00
2022-10-23T10:49:10.484Z,1974.00
2022-10-23T10:50:10.479Z,1832.00
2022-10-23T10:51:10.469Z,1641.00
2022-10-23T10:52:10.469Z,1405.00
2022-10-23T10:53:10.445Z,1364.00
2022-10-23T10:54:10.472Z,1329.00
2022-10-23T10:55:10.424Z,1396.00
2022-10-23T10:57:10.431Z,1480.00
2022-10-23T10:58:10.391Z,1348.00
2022-10-23T10:59:10.381Z,1217.00
2022-10-23T11:00:10.397Z,1113.00
2022-10-23T11:01:10.454Z,1041.00
2022-10-23T11:02:10.504Z,1065.00
2022-10-23T11:03:10.337Z,1083.00
2022-10-23T11:04:10.351Z,994.00
2022-10-23T11:05:10.320Z,854.00
2022-10-23T11:06:10.315Z,799.00
2022-10-23T11:07:10.299Z,747.00
2022-10-23T11:08:10.284Z,714.00
2022-10-23T11:09:20.291Z,745.00
2022-10-23T11:10:10.348Z,724.00
2022-10-23T11:11:10.250Z,704.00
2022-10-23T11:12:10.243Z,826.00
2022-10-23T11:13:10.258Z,1080.00
2022-10-23T11:14:10.290Z,1558.00
2022-10-23T11:15:10.213Z,1570.00
2022-10-23T11:16:10.223Z,1436.00
2022-10-23T11:17:10.188Z,1344.00
2022-10-23T11:18:10.185Z,1509.00
2022-10-23T11:19:16.173Z,1652.00
2022-10-23T11:20:10.159Z,1755.00
2022-10-23T11:21:10.776Z,1789.00
2022-10-23T11:22:10.147Z,2000.00
2022-10-23T11:23:10.126Z,2129.00
2022-10-23T11:25:10.104Z,2426.00
2022-10-23T11:26:10.111Z,2590.00
2022-10-23T11:27:10.116Z,2559.00
2022-10-23T11:28:10.808Z,2452.00
2022-10-23T11:29:10.113Z,2253.00
2022-10-23T11:30:10.095Z,2166.00
2022-10-23T11:31:12.047Z,2244.00
2022-10-23T11:32:10.056Z,2181.00
2022-10-23T11:33:10.036Z,2198.00
2022-10-23T11:34:10.010Z,2109.00
2022-10-23T11:35:10.012Z,1899.00
2022-10-23T11:36:09.987Z,1523.00
2022-10-23T11:37:10.006Z,1529.00
2022-10-23T11:38:09.966Z,1825.00
2022-10-23T11:39:09.992Z,1883.00
2022-10-23T11:40:10.058Z,1859.00
2022-10-23T11:41:09.937Z,1842.00
2022-10-23T11:42:09.945Z,1959.00
2022-10-23T11:43:09.909Z,2115.00
2022-10-23T11:44:09.914Z,2175.00
2022-10-23T11:45:09.908Z,2082.00
2022-10-23T11:46:09.912Z,2006.00
2022-10-23T11:47:09.899Z,2432.00
2022-10-23T11:48:09.862Z,2712.00
2022-10-23T11:49:09.903Z,2552.00
2022-10-23T11:50:09.843Z,2614.00
2022-10-23T11:51:09.830Z,2625.00
2022-10-23T11:52:09.818Z,2748.00
2022-10-23T11:53:13.986Z,2649.00
2022-10-23T11:54:09.804Z,2271.00
2022-10-23T11:55:10.093Z,1840.00
2022-10-23T11:56:09.774Z,1672.00
2022-10-23T11:57:10.694Z,1786.00
2022-10-23T11:58:09.761Z,2152.00
2022-10-23T11:59:09.759Z,2194.00
2022-10-23T12:00:09.755Z,2345.00
2022-10-23T12:01:09.765Z,2718.00
2022-10-23T12:02:09.811Z,2508.00
2022-10-23T12:03:09.701Z,2477.00
2022-10-23T12:04:09.840Z,2002.00
2022-10-23T12:05:09.686Z,1761.00
2022-10-23T12:06:09.684Z,1550.00
2022-10-23T12:07:09.674Z,2840.00
2022-10-23T12:08:09.656Z,3459.00
2022-10-23T12:09:09.638Z,2949.00
2022-10-23T12:10:09.636Z,2847.00
2022-10-23T12:11:09.625Z,3611.00
2022-10-23T12:12:09.631Z,3262.00
2022-10-23T12:13:09.589Z,2884.00
2022-10-23T12:14:09.652Z,2436.00
2022-10-23T12:15:09.576Z,2327.00
2022-10-23T12:16:09.562Z,2457.00
2022-10-23T12:17:09.551Z,2328.00
2022-10-23T12:18:09.587Z,2214.00
2022-10-23T12:19:09.539Z,2293.00
2022-10-23T12:20:09.515Z,2418.00
2022-10-23T12:21:09.505Z,2335.00
2022-10-23T12:22:09.494Z,2301.00
2022-10-23T12:23:09.572Z,2291.00
2022-10-23T12:24:09.477Z,2102.00
2022-10-23T12:25:09.479Z,2031.00
2022-10-23T12:26:09.512Z,2311.00
2022-10-23T12:27:09.492Z,2119.00
2022-10-23T12:28:09.437Z,2217.00
2022-10-23T12:29:09.435Z,2048.00
2022-10-23T12:30:09.417Z,1911.00
2022-10-23T12:31:10.341Z,1904.00
2022-10-23T12:32:09.408Z,1938.00
2022-10-23T12:33:11.840Z,1902.00
2022-10-23T12:34:09.485Z,1778.00
2022-10-23T12:35:09.361Z,1743.00
2022-10-23T12:36:09.486Z,1713.00
2022-10-23T12:37:09.339Z,1775.00
2022-10-23T12:38:09.326Z,1634.00
2022-10-23T12:39:09.362Z,1604.00
2022-10-23T12:40:09.321Z,1623.00
2022-10-23T12:41:09.305Z,1534.00
2022-10-23T12:42:09.286Z,1427.00
2022-10-23T12:43:09.273Z,1532.00
2022-10-23T12:44:09.265Z,1576.00
2022-10-23T12:45:09.258Z,1511.00
2022-10-23T12:46:09.260Z,1608.00
2022-10-23T12:47:09.231Z,1578.00
2022-10-23T12:48:09.224Z,1391.00
2022-10-23T12:49:09.216Z,1509.00
2022-10-23T12:50:09.277Z,1533.00
2022-10-23T12:51:09.181Z,1689.00
2022-10-23T12:52:09.197Z,1479.00
2022-10-23T12:53:09.160Z,1588.00
2022-10-23T12:54:09.157Z,1465.00
2022-10-23T12:55:09.147Z,1380.00
2022-10-23T12:56:09.141Z,1413.00
2022-10-23T12:57:09.120Z,1240.00
2022-10-23T12:58:09.133Z,1411.00
2022-10-23T12:59:09.100Z,1388.00
2022-10-23T13:00:09.167Z,1368.00
2022-10-23T13:01:09.189Z,1322.00
2022-10-23T13:02:09.166Z,1180.00
2022-10-23T13:03:09.106Z,1327.00
2022-10-23T13:04:09.131Z,1138.00
2022-10-23T13:05:09.036Z,1375.00
2022-10-23T13:06:09.026Z,1387.00
2022-10-23T13:07:09.019Z,1476.00
2022-10-23T13:08:09.012Z,1424.00
2022-10-23T13:09:09.017Z,1441.00
2022-10-23T13:10:08.992Z,1361.00
2022-10-23T13:11:09.008Z,1416.00
2022-10-23T13:12:08.960Z,1447.00
2022-10-23T13:13:08.951Z,1467.00
2022-10-23T13:14:08.949Z,1435.00
2022-10-23T13:15:08.945Z,1396.00
2022-10-23T13:16:08.918Z,1338.00
2022-10-23T13:17:08.939Z,1319.00
2022-10-23T13:18:08.910Z,1347.00
2022-10-23T13:19:08.889Z,1364.00
2022-10-23T13:20:09.003Z,1333.00
2022-10-23T13:21:08.863Z,1419.00
2022-10-23T13:22:08.861Z,1556.00
2022-10-23T13:23:08.984Z,1692.00
2022-10-23T13:24:08.829Z,1770.00
2022-10-23T13:25:08.825Z,1800.00
2022-10-23T13:26:08.817Z,1867.00
2022-10-23T13:27:08.797Z,1946.00
2022-10-23T13:28:08.827Z,1983.00
2022-10-23T13:29:09.714Z,1678.00
2022-10-23T13:30:10.736Z,1528.00
2022-10-23T13:31:08.771Z,1613.00
2022-10-23T13:32:08.759Z,1498.00
2022-10-23T13:33:08.795Z,1650.00
2022-10-23T13:34:08.765Z,1582.00
2022-10-23T13:35:21.527Z,1813.00
2022-10-23T13:36:08.798Z,1772.00
2022-10-23T13:37:08.769Z,1674.00
2022-10-23T13:38:08.719Z,1672.00
2022-10-23T13:39:08.716Z,1749.00
2022-10-23T13:40:09.490Z,1698.00
2022-10-23T13:41:08.645Z,1691.00
2022-10-23T13:42:08.639Z,1778.00
2022-10-23T13:43:08.644Z,1724.00
2022-10-23T13:44:08.632Z,1731.00
2022-10-23T13:45:08.609Z,1645.00
2022-10-23T13:47:08.584Z,1723.00
2022-10-23T13:48:08.579Z,1799.00
2022-10-23T13:49:08.563Z,1892.00
2022-10-23T13:50:08.574Z,1670.00
2022-10-23T13:51:08.576Z,1597.00
2022-10-23T13:52:08.540Z,1571.00
2022-10-23T13:53:08.518Z,1564.00
2022-10-23T13:54:08.517Z,1620.00
2022-10-23T13:55:08.504Z,1651.00
2022-10-23T13:56:08.494Z,1664.00
2022-10-23T13:57:08.497Z,1541.00
2022-10-23T13:58:08.478Z,1623.00
2022-10-23T13:59:08.467Z,1723.00
2022-10-23T14:00:08.464Z,1638.00
2022-10-23T14:01:08.588Z,1567.00
2022-10-23T14:02:08.541Z,1548.00
2022-10-23T14:03:08.437Z,1499.00
2022-10-23T14:04:08.400Z,1475.00
2022-10-23T14:05:08.413Z,1470.00
2022-10-23T14:06:08.394Z,1465.00
2022-10-23T14:07:08.419Z,1458.00
2022-10-23T14:08:08.370Z,1407.00
2022-10-23T14:09:08.371Z,1362.00
2022-10-23T14:10:08.358Z,1489.00
2022-10-23T14:11:08.375Z,1500.00
2022-10-23T14:12:08.360Z,1640.00
2022-10-23T14:13:08.558Z,1709.00
2022-10-23T14:14:08.316Z,1707.00
2022-10-23T14:15:08.288Z,1613.00
2022-10-23T14:16:08.281Z,1495.00
2022-10-23T14:17:08.268Z,1433.00
2022-10-23T14:18:08.559Z,1594.00
2022-10-23T14:19:08.272Z,1492.00
2022-10-23T14:20:08.399Z,1348.00
2022-10-23T14:21:08.227Z,1222.00
2022-10-23T14:22:08.251Z,1182.00
2022-10-23T14:23:08.256Z,1226.00
2022-10-23T14:24:08.224Z,1215.00
2022-10-23T14:25:08.196Z,1201.00
2022-10-23T14:26:08.173Z,1147.00
2022-10-23T14:27:08.176Z,1156.00
2022-10-23T14:28:08.224Z,1135.00
2022-10-23T14:29:10.852Z,1178.00
2022-10-23T14:30:08.135Z,1194.00
2022-10-23T14:31:08.144Z,1192.00
2022-10-23T14:32:08.106Z,1146.00
2022-10-23T14:33:08.102Z,1169.00
2022-10-23T14:34:08.098Z,1220.00
2022-10-23T14:35:08.103Z,1161.00
2022-10-23T14:36:08.208Z,1207.00
2022-10-23T14:37:09.282Z,1193.00
2022-10-23T14:38:08.061Z,1135.00
2022-10-23T14:39:08.035Z,1086.00
2022-10-23T14:40:08.034Z,1063.00
2022-10-23T14:41:08.030Z,1093.00
2022-10-23T14:42:08.002Z,1090.00
2022-10-23T14:43:07.996Z,1114.00
2022-10-23T14:44:08.001Z,1110.00
2022-10-23T14:45:07.976Z,1069.00
2022-10-23T14:46:07.955Z,979.00
2022-10-23T14:47:07.948Z,912.00
2022-10-23T14:48:07.964Z,835.00
2022-10-23T14:49:07.936Z,769.00
2022-10-23T14:50:07.943Z,749.00
2022-10-23T14:51:07.979Z,764.00
2022-10-23T14:52:07.894Z,745.00
2022-10-23T14:53:07.889Z,721.00
2022-10-23T14:54:07.876Z,692.00
2022-10-23T14:55:07.872Z,644.00
2022-10-23T14:56:07.853Z,606.00
2022-10-23T14:57:07.861Z,598.00
2022-10-23T14:58:07.829Z,575.00
2022-10-23T14:59:07.828Z,578.00
2022-10-23T15:00:07.852Z,638.00
2022-10-23T15:01:08.094Z,685.00
2022-10-23T15:02:07.788Z,654.00
2022-10-23T15:03:07.795Z,590.00
2022-10-23T15:04:07.775Z,545.00
2022-10-23T15:05:07.786Z,474.00
2022-10-23T15:06:07.748Z,474.00
2022-10-23T15:07:07.740Z,501.00
2022-10-23T15:08:07.718Z,570.00
2022-10-23T15:09:07.728Z,566.00
2022-10-23T15:10:07.761Z,484.00
2022-10-23T15:11:10.276Z,405.00
2022-10-23T15:12:07.702Z,321.00
2022-10-23T15:13:07.674Z,258.00
2022-10-23T15:14:07.656Z,282.00
2022-10-23T15:15:07.668Z,309.00
2022-10-23T15:16:07.634Z,296.00
2022-10-23T15:17:09.723Z,270.00
2022-10-23T15:18:07.667Z,303.00
2022-10-23T15:19:08.031Z,306.00
2022-10-23T15:20:07.596Z,399.00
2022-10-23T15:21:07.589Z,505.00
2022-10-23T15:22:07.574Z,570.00
2022-10-23T15:23:07.562Z,566.00
2022-10-23T15:24:07.573Z,543.00
2022-10-23T15:25:07.549Z,521.00
2022-10-23T15:26:07.530Z,498.00
2022-10-23T15:27:07.528Z,466.00
2022-10-23T15:28:07.542Z,457.00
2022-10-23T15:29:07.500Z,448.00
2022-10-23T15:30:07.484Z,413.00
2022-10-23T15:31:07.484Z,382.00
2022-10-23T15:32:07.468Z,350.00
2022-10-23T15:33:07.466Z,325.00
2022-10-23T15:34:07.469Z,320.00
2022-10-23T15:35:07.471Z,284.00
2022-10-23T15:36:07.435Z,313.00
2022-10-23T15:37:07.420Z,324.00
2022-10-23T15:38:07.429Z,287.00
2022-10-23T15:39:07.402Z,273.00
2022-10-23T15:40:07.421Z,260.00
2022-10-23T15:41:07.385Z,220.00
2022-10-23T15:42:07.492Z,200.00
2022-10-23T15:43:10.351Z,190.00
2022-10-23T15:44:07.603Z,176.00
2022-10-23T15:45:07.370Z,160.00
2022-10-23T15:46:07.382Z,156.00
2022-10-23T15:47:07.311Z,144.00
2022-10-23T15:48:08.136Z,138.00
2022-10-23T15:49:07.294Z,135.00
2022-10-23T15:50:08.083Z,138.00
2022-10-23T15:51:07.268Z,138.00
2022-10-23T15:52:07.346Z,134.00
2022-10-23T15:53:07.241Z,128.00
2022-10-23T15:54:07.229Z,122.00
2022-10-23T15:55:07.276Z,112.00
2022-10-23T15:56:07.209Z,109.00
2022-10-23T15:57:07.247Z,108.00
2022-10-23T15:58:07.268Z,109.00
2022-10-23T15:59:07.352Z,110.00
2022-10-23T16:00:07.169Z,104.00
2022-10-23T16:01:07.459Z,104.00
2022-10-23T16:02:07.413Z,103.00
2022-10-23T16:03:07.403Z,98.00
2022-10-23T16:04:07.152Z,90.00
2022-10-23T16:05:07.179Z,79.00
2022-10-23T16:06:07.122Z,69.00
2022-10-23T16:07:07.093Z,73.00
2022-10-23T16:08:07.173Z,66.00
2022-10-23T16:09:07.080Z,62.00
2022-10-23T16:10:07.193Z,54.00
2022-10-23T16:11:07.138Z,49.00
2022-10-23T16:12:07.083Z,43.00
2022-10-23T16:13:07.068Z,38.00
2022-10-23T16:14:07.202Z,34.00
2022-10-23T16:15:07.015Z,29.00
2022-10-23T16:16:06.996Z,22.00
2022-10-23T16:17:07.163Z,18.00
2022-10-23T16:18:06.975Z,16.00
2022-10-23T16:19:07.144Z,14.00
2022-10-23T16:20:07.573Z,14.00
2022-10-23T16:21:07.067Z,13.00
2022-10-23T16:22:06.931Z,15.00
2022-10-23T16:23:06.965Z,16.00